Terminal Aerodrome Forecast
Issued by NWS

Home | Current Version | Previous Version | Text Only | Print | Product List | Glossary On
Versions: 1 2 3 4 5 6 7 8 9 10 11 12 13 14
905
FTAK31 PAJN 300522
TAFAWG
TAF
PAWG 300522Z 3006/3106 VRB03KT P6SM -SHRA FEW015 BKN025 OVC045
      TEMPO 3008/3012 6SM -SHRA BR SCT015 OVC030
     FM310000 13006KT P6SM VCSH OVC050
      AMD LTD TO CLD VIS AND WIND 3006/3015=

USA.gov is the U.S. government's official web portal to all federal, state and local government web resources and services.